• Join FlightAware (Why Join?)
  • Login
  • US Flag 
05:16PM EDT


 

Airport Tracker/Info


-or-


 

Live Flight TrackerFlight Track Log ✈ UAL1116 ✈ 30-Dec-2013 ✈ MMMX / MEX - KSFO

Flight Track Log - Related Links

Times and Time Zones

All times are in EST time to prevent confusion due to time zone crossing. See the UAL1116 flight status page for this flight to view local times or setup timezone preferences in your user account.

Time Position Orientation Groundspeed Altitude Reporting Facility
EST Latitude Longitude Course Direction KTS MPH feet Rate Location/Type
05:54PM 24.9327 -104.8586 312° West  Level Estimated
05:55PM 25.0107 -104.9537 312° West  Level FlightAware Approximate
05:56PM 25.0886 -105.0490 312° West  Level FlightAware Approximate
05:57PM 25.1665 -105.1443 312° West  Level FlightAware Approximate
05:58PM 25.2443 -105.2398 312° West  Level FlightAware Approximate
05:59PM 25.3221 -105.3354 312° West  Level FlightAware Approximate
06:00PM 25.3997 -105.4312 312° West  Level FlightAware Approximate
06:01PM 25.4774 -105.5270 312° West  Level FlightAware Approximate
06:02PM 25.5549 -105.6230 312° West  Level FlightAware Approximate
06:03PM 25.6324 -105.7191 312° West  Level FlightAware Approximate
06:04PM 25.7098 -105.8153 312° West  Level FlightAware Approximate
06:05PM 25.7872 -105.9117 312° West  Level FlightAware Approximate
06:06PM 25.8645 -106.0082 312° West  Level FlightAware Approximate
06:07PM 25.9457 -106.1007 309° West  Level Estimated
06:08PM 26.0228 -106.1975 312° West  Level FlightAware Approximate
06:09PM 26.0999 -106.2944 312° West  Level FlightAware Approximate
06:10PM 26.1769 -106.3914 312° West  Level FlightAware Approximate
06:11PM 26.2539 -106.4886 311° West  Level FlightAware Approximate
06:12PM 26.3307 -106.5859 311° West  Level FlightAware Approximate
06:13PM 26.4076 -106.6833 311° West  Level FlightAware Approximate
06:14PM 26.4843 -106.7808 311° West  Level FlightAware Approximate
06:15PM 26.5610 -106.8785 311° West  Level FlightAware Approximate
06:16PM 26.6418 -106.9720 306° West  Level Estimated
06:17PM 26.7174 -107.0708 311° West  Level FlightAware Approximate
06:18PM 26.7931 -107.1697 311° West  Level FlightAware Approximate
06:19PM 26.8705 -107.2713 311° West  Level FlightAware Approximate
06:20PM 26.9479 -107.3730 310° West  Level FlightAware Approximate
06:21PM 27.0253 -107.4749 310° West  Level FlightAware Approximate
06:22PM 27.1025 -107.5769 310° West  Level FlightAware Approximate
06:23PM 27.1797 -107.6791 310° West  Level FlightAware Approximate
06:24PM 27.2568 -107.7814 310° West  Level FlightAware Approximate
06:25PM 27.3339 -107.8839 310° West  Level FlightAware Approximate
06:26PM 27.4108 -107.9865 310° West  Level FlightAware Approximate
06:27PM 27.4877 -108.0892 310° West  Level FlightAware Approximate
06:28PM 27.5645 -108.1921 310° West  Level FlightAware Approximate
06:29PM 27.6413 -108.2951 310° West  Level FlightAware Approximate
06:30PM 27.7179 -108.3982 310° West  Level FlightAware Approximate
06:31PM 27.7945 -108.5015 310° West  Level FlightAware Approximate
06:32PM 27.8710 -108.6050 310° West  Level FlightAware Approximate
06:33PM 27.9475 -108.7086 310° West  Level FlightAware Approximate
06:34PM 28.0238 -108.8124 310° West  Level FlightAware Approximate
06:35PM 28.1061 -108.9102 288° West  Level Estimated
06:36PM 28.1779 -109.0181 307° West  Level FlightAware Approximate
06:37PM 28.2497 -109.1262 307° West  Level FlightAware Approximate
06:38PM 28.3215 -109.2344 307° West  Level FlightAware Approximate
06:39PM 28.3931 -109.3428 307° West  Level FlightAware Approximate
06:40PM 28.4646 -109.4513 307° West  Level FlightAware Approximate
06:41PM 28.5361 -109.5599 307° West  Level FlightAware Approximate
06:42PM 28.6075 -109.6687 307° West  Level FlightAware Approximate
06:43PM 28.6788 -109.7776 307° West  Level FlightAware Approximate
06:44PM 28.7500 -109.8867 307° West  Level FlightAware Approximate
06:45PM 28.8322 -109.9853 288° West  Level Estimated
06:46PM 28.8993 -110.0979 304° West  Level FlightAware Approximate
06:47PM 28.9663 -110.2106 304° West  Level FlightAware Approximate
06:48PM 29.0332 -110.3235 304° West  Level FlightAware Approximate
06:49PM 29.1000 -110.4365 304° West  Level FlightAware Approximate
06:50PM 29.1667 -110.5497 304° West  Level FlightAware Approximate
06:51PM 29.2333 -110.6630 304° West  Level FlightAware Approximate
06:52PM 29.2999 -110.7765 304° West  Level FlightAware Approximate
06:53PM 29.3663 -110.8901 304° West  Level FlightAware Approximate
06:54PM 29.4326 -111.0038 304° West  Level FlightAware Approximate
06:55PM 29.5152 -111.1027 316° Northwest  Level Estimated
06:56PM 29.5827 -111.2157 304° West  Level FlightAware Approximate
06:57PM 29.6500 -111.3289 304° West  Level FlightAware Approximate
06:58PM 29.7173 -111.4423 304° West  Level FlightAware Approximate
06:59PM 29.8000 -111.5413 317° Northwest  Level Estimated
07:00PM 29.8826 -111.6405 314° West  Level Estimated
07:01PM 29.9509 -111.7533 305° West  Level FlightAware Approximate
07:02PM 30.0191 -111.8662 305° West  Level FlightAware Approximate
07:03PM 30.0872 -111.9793 305° West  Level FlightAware Approximate
07:04PM 30.1699 -112.0787 315° West  Level Estimated
07:05PM 30.2395 -112.1908 306° West  Level FlightAware Approximate
07:06PM 30.3089 -112.3030 306° West  Level FlightAware Approximate
07:07PM 30.3783 -112.4154 306° West  Level FlightAware Approximate
07:08PM 30.4475 -112.5280 306° West  Level FlightAware Approximate
07:09PM 30.5303 -112.6276 318° Northwest  Level Estimated
07:10PM 30.6036 -112.7369 308° West  Level FlightAware Approximate
07:11PM 30.6767 -112.8464 308° West  Level FlightAware Approximate
07:12PM 30.7498 -112.9560 308° West  Level FlightAware Approximate
07:13PM 30.8228 -113.0658 308° West  Level FlightAware Approximate
07:14PM 30.8957 -113.1758 308° West  Level FlightAware Approximate
07:15PM 30.9684 -113.2859 308° West  Level FlightAware Approximate
07:16PM 31.0411 -113.3962 308° West  Level FlightAware Approximate
07:17PM 31.1137 -113.5067 308° West  Level FlightAware Approximate
07:18PM 31.1863 -113.6173 307° West  Level FlightAware Approximate
07:19PM 31.2587 -113.7282 307° West  Level FlightAware Approximate
07:20PM 31.3416 -113.8284 313° West  Level Estimated
07:21PM 31.4245 -113.9288 318° Northwest  Level Estimated
07:22PM 31.4980 -114.0390 308° West  Level FlightAware Approximate
07:23PM 31.5714 -114.1493 308° West  Level FlightAware Approximate
07:24PM 31.6542 -114.2500 313° West  Level Estimated
07:25PM 31.7370 -114.3509 321° Northwest  Level Estimated
07:26PM 31.8198 -114.4519 317° Northwest  Level Estimated
07:27PM 31.8933 -114.5625 308° West  Level FlightAware Approximate
07:28PM 31.9737 -114.6610 314° West  Level Estimated
07:29PM 32.0540 -114.7596 314° West  Level Estimated
07:30PM 32.1342 -114.8585 314° West  Level Estimated
07:31PM 32.2144 -114.9575 314° West  Level Estimated
07:32PM 32.2945 -115.0566 314° West  Level Estimated
07:32PM 32.4647 -115.3067 313° West 415 478 38,000  Level Los Angeles Center
07:33PM 32.3745 -115.1560 314° West  Level Estimated
07:33PM 32.5403 -115.4456 303° West 419 482 37,900  Level Los Angeles Center
07:34PM 32.4544 -115.2555 314° West  Level Estimated
07:34PM 32.6022 -115.5622 302° West 418 481 38,000  Level Los Angeles Center
07:35PM 32.5342 -115.3552 314° West  Level Estimated
07:35PM 32.6500 -115.6564 301° West 418 481 38,000  Level Los Angeles Center
07:36PM 32.6140 -115.4551 313° West  Level Estimated
07:36PM 32.6961 -115.8169 289° West 427 491 38,000  Level Los Angeles Center
07:37PM 32.6937 -115.5552 313° West  Level Estimated
07:37PM 32.7328 -115.9506 288° West 427 491 38,000  Level Los Angeles Center
07:39PM 32.7703 -116.0864 288° West 431 496 38,000  Level Los Angeles Center
07:40PM 32.8161 -116.2581 288° West 428 493 38,000  Level Los Angeles Center
07:41PM 32.8492 -116.3947 286° West 430 495 38,000  Level Los Angeles Center
07:42PM 32.8889 -116.5283 290° West 425 489 38,000 -60 Level Los Angeles Center
07:43PM 32.9314 -116.6875 288° West 418 481 37,900  Descending Los Angeles Center
07:44PM 32.9656 -116.8189 287° West 417 480 38,000  Climbing Los Angeles Center
07:45PM 32.9997 -116.9486 287° West 412 474 37,900  Descending Los Angeles Center
07:46PM 33.0344 -117.0808 287° West 416 479 38,000  Climbing Los Angeles Center
07:47PM 33.0678 -117.2125 287° West 420 483 38,000  Level Los Angeles Center
07:48PM 33.1022 -117.3439 287° West 417 480 38,000  Level Los Angeles Center
07:49PM 33.1769 -117.4833 303° West 414 476 38,000  Level Los Angeles Center
07:50PM 33.2442 -117.5958 306° West 415 478 38,000  Level Los Angeles Center
07:51PM 33.3117 -117.7072 306° West 415 478 38,000  Level Los Angeles Center
07:52PM 33.3775 -117.8192 305° West 412 474 38,000  Level Los Angeles Center
07:53PM 33.4444 -117.9308 306° West 413 475 38,000  Level Los Angeles Center
07:54PM 33.5239 -118.0653 305° West 412 474 38,000  Level Los Angeles Center
07:55PM 33.5911 -118.1786 305° West 414 476 38,000  Level Los Angeles Center
07:56PM 33.6583 -118.2928 305° West 413 475 38,000  Level Los Angeles Center
07:57PM 33.7236 -118.4064 305° West 415 478 38,000  Level Los Angeles Center
07:58PM 33.7950 -118.5283 305° West 416 479 38,000  Level Los Angeles Center
07:59PM 33.8494 -118.6208 305° West 420 483 38,000  Level Los Angeles Center
08:00PM 33.9281 -118.7561 305° West 415 478 38,000  Level Los Angeles Center
08:01PM 33.9936 -118.8706 305° West 415 478 38,000  Level Los Angeles Center
08:02PM 34.0739 -118.9700 314° West 412 474 38,000  Level Los Angeles Center
08:03PM 34.1706 -119.0889 315° West 413 475 38,000  Level Los Angeles Center
08:05PM 34.2511 -119.1883 314° West 414 476 38,000  Level Los Angeles Center
08:06PM 34.3303 -119.2869 314° West 412 474 38,000  Level Los Angeles Center
08:07PM 34.4108 -119.3850 315° West 410 472 38,000  Level Los Angeles Center
08:08PM 34.4900 -119.4831 314° West 408 470 38,000  Level Los Angeles Center
08:09PM 34.5544 -119.5622 315° West 410 472 38,000  Level Los Angeles Center
08:10PM 34.6656 -119.6978 315° West 409 471 38,000  Level Los Angeles Center
08:11PM 34.7456 -119.7983 314° West 412 474 38,000  Level Los Angeles Center
08:12PM 34.8256 -119.8989 314° West 413 475 38,000  Level Los Angeles Center
08:13PM 34.9072 -119.9994 315° West 416 479 38,000  Level Los Angeles Center
08:14PM 34.9867 -120.1006 314° West 414 476 38,000  Level Los Angeles Center
08:15PM 35.0639 -120.1961 315° West 413 475 38,000  Level Los Angeles Center
08:16PM 35.1603 -120.3181 314° West 417 480 38,000  Level Los Angeles Center
08:17PM 35.2375 -120.4175 314° West 411 473 38,000  Level Los Angeles Center
08:18PM 35.3181 -120.5203 314° West 418 481 38,000  Level Los Angeles Center
08:19PM 35.3961 -120.6214 313° West 418 481 38,000  Level Los Angeles Center
08:20PM 35.4750 -120.7214 314° West 413 475 38,000  Level Los Angeles Center
08:21PM 35.5539 -120.8225 314° West 412 474 38,000  Level Los Angeles Center
08:22PM 35.6564 -120.9203 322° Northwest 406 467 38,000  Level Los Angeles Center
08:23PM 35.7467 -121.0053 323° Northwest 408 470 38,000 -60 Level Los Angeles Center
08:24PM 35.8375 -121.0900 323° Northwest 409 471 37,900  Descending Los Angeles Center
08:25PM 35.9269 -121.1753 322° Northwest 406 467 38,000 -1,020 Climbing Los Angeles Center
08:26PM 36.0506 -121.2925 323° Northwest 400 460 35,500 -2,280 Descending Oakland Center
08:27PM 36.1389 -121.3764 323° Northwest 400 460 32,700 -2,460 Descending Oakland Center
08:28PM 36.2281 -121.4614 322° Northwest 402 463 30,500 -2,220 Descending Oakland Center
08:30PM 36.3131 -121.5456 321° Northwest 393 452 28,300 -2,160 Descending Oakland Center
08:31PM 36.3978 -121.6239 323° Northwest 382 440 26,200 -2,280 Descending Oakland Center
08:32PM 36.4947 -121.7200 321° Northwest 371 427 23,700 -2,220 Descending Oakland Center
08:33PM 36.5725 -121.7964 322° Northwest 358 412 21,700 -1,860 Descending Oakland Center
08:34PM 36.6428 -121.8631 323° Northwest 343 395 20,000 -1,740 Descending Oakland Center
08:35PM 36.7147 -121.9369 321° Northwest 337 388 18,200 -2,040 Descending Oakland Center
08:36PM 36.8167 -121.9833 340° North 345 397 15,700 -1,920 Descending Northern Cal TRACON
08:37PM 36.8933 -122.0028 349° North 335 386 14,300 -1,680 Descending Oakland Center
08:38PM 36.9822 -122.0258 348° North 328 377 12,500 -1,860 Descending Oakland Center
08:39PM 37.0847 -122.0536 348° North 314 361 10,600 -1,260 Descending Oakland Center
08:40PM 37.1678 -122.0764 348° North 307 353 10,000 -780 Descending Oakland Center
08:41PM 37.2406 -122.0950 348° North 266 306 9,100 -1,200 Descending Oakland Center
08:42PM 37.3136 -122.1142 348° North 268 308 7,600 -1,680 Descending Oakland Center
08:43PM 37.3869 -122.1342 348° North 270 311 5,800 -1,740 Descending Oakland Center
08:44PM 37.4597 -122.1519 349° North 269 310 4,100 -900 Descending Oakland Center
08:45PM 37.5236 -122.1481 North 245 282 4,000 -540 Descending Oakland Center
08:46PM 37.5492 -122.2031 300° West 213 245 3,000 -1,080 Descending Oakland Center
08:47PM 37.5692 -122.2572 295° West 187 215 1,800 -1,020 Descending Oakland Center
08:48PM 37.5925 -122.3089 300° West 176 203 1,000 -840 Descending Oakland Center
08:49PM 37.6156 -122.3619 299° West 170 196 200 -840 Descending Oakland Center
08:51PM 37.6167 -122.3667 322° Northwest  Level FlightAware Approximate